sensor_id;sensor_type;location;lat;lon;timestamp;P1;durP1;ratioP1;P2;durP2;ratioP2
51987;SDS011;38003;52.012;4.346;2022-07-23T00:00:32;2.93;;;1.63;;
51987;SDS011;38003;52.012;4.346;2022-07-23T00:03:06;2.45;;;1.48;;
51987;SDS011;38003;52.012;4.346;2022-07-23T00:05:34;3.57;;;1.57;;
51987;SDS011;38003;52.012;4.346;2022-07-23T00:08:04;2.47;;;1.33;;
51987;SDS011;38003;52.012;4.346;2022-07-23T00:10:37;3.05;;;1.63;;
51987;SDS011;38003;52.012;4.346;2022-07-23T00:13:05;4.10;;;1.50;;
51987;SDS011;38003;52.012;4.346;2022-07-23T00:15:32;3.03;;;1.40;;
51987;SDS011;38003;52.012;4.346;2022-07-23T00:18:00;3.20;;;1.50;;
51987;SDS011;38003;52.012;4.346;2022-07-23T00:20:30;1.67;;;1.50;;
51987;SDS011;38003;52.012;4.346;2022-07-23T00:22:58;3.90;;;1.63;;
51987;SDS011;38003;52.012;4.346;2022-07-23T00:25:26;2.33;;;1.55;;
51987;SDS011;38003;52.012;4.346;2022-07-23T00:27:56;4.78;;;1.50;;
51987;SDS011;38003;52.012;4.346;2022-07-23T00:30:24;3.50;;;1.30;;
51987;SDS011;38003;52.012;4.346;2022-07-23T00:32:53;4.50;;;1.43;;
51987;SDS011;38003;52.012;4.346;2022-07-23T00:35:23;2.37;;;1.60;;
51987;SDS011;38003;52.012;4.346;2022-07-23T00:37:53;2.60;;;1.52;;
51987;SDS011;38003;52.012;4.346;2022-07-23T00:40:22;3.42;;;1.42;;
51987;SDS011;38003;52.012;4.346;2022-07-23T00:42:50;4.15;;;1.40;;
51987;SDS011;38003;52.012;4.346;2022-07-23T00:45:19;3.63;;;1.40;;
51987;SDS011;38003;52.012;4.346;2022-07-23T00:47:47;2.20;;;1.35;;
51987;SDS011;38003;52.012;4.346;2022-07-23T00:50:15;1.88;;;1.70;;
51987;SDS011;38003;52.012;4.346;2022-07-23T00:52:43;3.53;;;1.57;;
51987;SDS011;38003;52.012;4.346;2022-07-23T00:55:13;3.25;;;1.40;;
51987;SDS011;38003;52.012;4.346;2022-07-23T00:57:42;4.38;;;1.60;;
51987;SDS011;38003;52.012;4.346;2022-07-23T01:00:11;3.47;;;1.65;;
51987;SDS011;38003;52.012;4.346;2022-07-23T01:02:40;3.07;;;1.53;;
51987;SDS011;38003;52.012;4.346;2022-07-23T01:05:09;2.13;;;1.60;;
51987;SDS011;38003;52.012;4.346;2022-07-23T01:07:37;2.83;;;1.50;;
51987;SDS011;38003;52.012;4.346;2022-07-23T01:10:05;2.63;;;1.60;;
51987;SDS011;38003;52.012;4.346;2022-07-23T01:12:56;3.63;;;1.87;;
51987;SDS011;38003;52.012;4.346;2022-07-23T01:15:24;2.65;;;1.77;;
51987;SDS011;38003;52.012;4.346;2022-07-23T01:17:53;4.37;;;2.30;;
51987;SDS011;38003;52.012;4.346;2022-07-23T01:20:20;3.17;;;1.77;;
51987;SDS011;38003;52.012;4.346;2022-07-23T01:22:51;6.35;;;2.05;;
51987;SDS011;38003;52.012;4.346;2022-07-23T01:25:20;3.10;;;1.70;;
51987;SDS011;38003;52.012;4.346;2022-07-23T01:27:48;2.75;;;1.80;;
51987;SDS011;38003;52.012;4.346;2022-07-23T01:30:16;3.08;;;1.75;;
51987;SDS011;38003;52.012;4.346;2022-07-23T01:32:44;3.45;;;1.80;;
51987;SDS011;38003;52.012;4.346;2022-07-23T01:35:12;2.55;;;2.00;;
51987;SDS011;38003;52.012;4.346;2022-07-23T01:37:40;3.87;;;1.83;;
51987;SDS011;38003;52.012;4.346;2022-07-23T01:40:09;2.65;;;1.90;;
51987;SDS011;38003;52.012;4.346;2022-07-23T01:42:37;4.38;;;1.75;;
51987;SDS011;38003;52.012;4.346;2022-07-23T01:45:07;5.20;;;1.88;;
51987;SDS011;38003;52.012;4.346;2022-07-23T01:47:36;4.17;;;1.80;;
51987;SDS011;38003;52.012;4.346;2022-07-23T01:50:04;3.63;;;2.00;;
51987;SDS011;38003;52.012;4.346;2022-07-23T01:52:33;4.63;;;1.90;;
51987;SDS011;38003;52.012;4.346;2022-07-23T01:55:01;2.40;;;1.80;;
51987;SDS011;38003;52.012;4.346;2022-07-23T01:57:30;3.13;;;1.83;;
51987;SDS011;38003;52.012;4.346;2022-07-23T01:59:58;2.77;;;1.83;;
51987;SDS011;38003;52.012;4.346;2022-07-23T02:02:26;4.13;;;2.07;;
51987;SDS011;38003;52.012;4.346;2022-07-23T02:04:54;4.93;;;1.90;;
51987;SDS011;38003;52.012;4.346;2022-07-23T02:07:21;2.73;;;1.90;;
51987;SDS011;38003;52.012;4.346;2022-07-23T02:09:49;4.97;;;2.27;;
51987;SDS011;38003;52.012;4.346;2022-07-23T02:12:17;4.00;;;1.80;;
51987;SDS011;38003;52.012;4.346;2022-07-23T02:14:46;5.03;;;2.07;;
51987;SDS011;38003;52.012;4.346;2022-07-23T02:17:14;5.83;;;2.13;;
51987;SDS011;38003;52.012;4.346;2022-07-23T02:19:42;6.17;;;2.10;;
51987;SDS011;38003;52.012;4.346;2022-07-23T02:22:10;2.70;;;1.63;;
51987;SDS011;38003;52.012;4.346;2022-07-23T02:24:38;5.23;;;2.73;;
51987;SDS011;38003;52.012;4.346;2022-07-23T02:27:06;2.93;;;2.10;;
51987;SDS011;38003;52.012;4.346;2022-07-23T02:29:34;6.27;;;2.20;;
51987;SDS011;38003;52.012;4.346;2022-07-23T02:32:03;3.67;;;1.80;;
51987;SDS011;38003;52.012;4.346;2022-07-23T02:34:33;3.47;;;2.30;;
51987;SDS011;38003;52.012;4.346;2022-07-23T02:37:01;4.17;;;2.20;;
51987;SDS011;38003;52.012;4.346;2022-07-23T02:39:28;2.40;;;1.87;;
51987;SDS011;38003;52.012;4.346;2022-07-23T02:41:56;2.67;;;1.80;;
51987;SDS011;38003;52.012;4.346;2022-07-23T02:44:24;3.43;;;1.97;;
51987;SDS011;38003;52.012;4.346;2022-07-23T02:46:52;3.67;;;1.97;;
51987;SDS011;38003;52.012;4.346;2022-07-23T02:49:22;3.17;;;2.20;;
51987;SDS011;38003;52.012;4.346;2022-07-23T02:51:50;2.97;;;2.10;;
51987;SDS011;38003;52.012;4.346;2022-07-23T02:54:18;4.97;;;2.20;;
51987;SDS011;38003;52.012;4.346;2022-07-23T02:56:46;2.87;;;1.90;;
51987;SDS011;38003;52.012;4.346;2022-07-23T02:59:14;4.33;;;2.00;;
51987;SDS011;38003;52.012;4.346;2022-07-23T03:01:42;4.57;;;2.00;;
51987;SDS011;38003;52.012;4.346;2022-07-23T03:04:10;2.57;;;2.20;;
51987;SDS011;38003;52.012;4.346;2022-07-23T03:06:39;4.87;;;2.20;;
51987;SDS011;38003;52.012;4.346;2022-07-23T03:09:07;2.70;;;1.97;;
51987;SDS011;38003;52.012;4.346;2022-07-23T03:11:35;4.10;;;2.33;;
51987;SDS011;38003;52.012;4.346;2022-07-23T03:14:03;3.43;;;1.80;;
51987;SDS011;38003;52.012;4.346;2022-07-23T03:16:32;5.03;;;2.60;;
51987;SDS011;38003;52.012;4.346;2022-07-23T03:19:00;4.33;;;2.27;;
51987;SDS011;38003;52.012;4.346;2022-07-23T03:21:31;3.30;;;2.10;;
51987;SDS011;38003;52.012;4.346;2022-07-23T03:24:01;2.20;;;2.00;;
51987;SDS011;38003;52.012;4.346;2022-07-23T03:26:29;4.30;;;2.20;;
51987;SDS011;38003;52.012;4.346;2022-07-23T03:28:57;3.63;;;2.07;;
51987;SDS011;38003;52.012;4.346;2022-07-23T03:31:28;3.73;;;2.30;;
51987;SDS011;38003;52.012;4.346;2022-07-23T03:33:56;2.13;;;1.93;;
51987;SDS011;38003;52.012;4.346;2022-07-23T03:36:24;2.80;;;2.07;;
51987;SDS011;38003;52.012;4.346;2022-07-23T03:38:53;2.33;;;2.00;;
51987;SDS011;38003;52.012;4.346;2022-07-23T03:41:22;5.77;;;2.10;;
51987;SDS011;38003;52.012;4.346;2022-07-23T03:43:50;3.33;;;2.47;;
51987;SDS011;38003;52.012;4.346;2022-07-23T03:46:18;2.23;;;2.03;;
51987;SDS011;38003;52.012;4.346;2022-07-23T03:48:46;3.87;;;2.20;;
51987;SDS011;38003;52.012;4.346;2022-07-23T03:51:14;2.47;;;2.20;;
51987;SDS011;38003;52.012;4.346;2022-07-23T03:53:42;2.83;;;1.90;;
51987;SDS011;38003;52.012;4.346;2022-07-23T03:56:10;3.73;;;2.13;;
51987;SDS011;38003;52.012;4.346;2022-07-23T03:58:39;2.13;;;1.93;;
51987;SDS011;38003;52.012;4.346;2022-07-23T04:01:07;3.33;;;2.20;;
51987;SDS011;38003;52.012;4.346;2022-07-23T04:03:35;3.30;;;2.20;;
51987;SDS011;38003;52.012;4.346;2022-07-23T04:06:03;4.00;;;2.10;;
51987;SDS011;38003;52.012;4.346;2022-07-23T04:08:31;3.27;;;2.33;;
51987;SDS011;38003;52.012;4.346;2022-07-23T04:10:59;3.57;;;2.00;;
51987;SDS011;38003;52.012;4.346;2022-07-23T04:13:27;3.30;;;2.07;;
51987;SDS011;38003;52.012;4.346;2022-07-23T04:15:56;4.10;;;2.43;;
51987;SDS011;38003;52.012;4.346;2022-07-23T04:18:24;3.40;;;2.00;;
51987;SDS011;38003;52.012;4.346;2022-07-23T04:20:52;5.33;;;2.50;;
51987;SDS011;38003;52.012;4.346;2022-07-23T04:23:20;2.30;;;2.10;;
51987;SDS011;38003;52.012;4.346;2022-07-23T04:25:51;3.60;;;2.20;;
51987;SDS011;38003;52.012;4.346;2022-07-23T04:28:19;3.93;;;2.67;;
51987;SDS011;38003;52.012;4.346;2022-07-23T04:30:47;2.53;;;2.27;;
51987;SDS011;38003;52.012;4.346;2022-07-23T04:33:16;5.37;;;2.20;;
51987;SDS011;38003;52.012;4.346;2022-07-23T04:35:45;4.43;;;2.37;;
51987;SDS011;38003;52.012;4.346;2022-07-23T04:38:13;4.77;;;2.50;;
51987;SDS011;38003;52.012;4.346;2022-07-23T04:40:41;3.50;;;2.30;;
51987;SDS011;38003;52.012;4.346;2022-07-23T04:43:09;3.90;;;2.40;;
51987;SDS011;38003;52.012;4.346;2022-07-23T04:45:37;4.23;;;2.90;;
51987;SDS011;38003;52.012;4.346;2022-07-23T04:48:05;4.33;;;2.33;;
51987;SDS011;38003;52.012;4.346;2022-07-23T04:50:34;3.27;;;2.40;;
51987;SDS011;38003;52.012;4.346;2022-07-23T04:53:02;4.47;;;2.60;;
51987;SDS011;38003;52.012;4.346;2022-07-23T04:55:30;4.20;;;2.20;;
51987;SDS011;38003;52.012;4.346;2022-07-23T04:57:58;3.93;;;2.53;;
51987;SDS011;38003;52.012;4.346;2022-07-23T05:00:26;2.77;;;2.43;;
51987;SDS011;38003;52.012;4.346;2022-07-23T05:02:54;6.40;;;2.57;;
51987;SDS011;38003;52.012;4.346;2022-07-23T05:05:21;5.00;;;2.47;;
51987;SDS011;38003;52.012;4.346;2022-07-23T05:07:51;5.83;;;2.80;;
51987;SDS011;38003;52.012;4.346;2022-07-23T05:10:19;4.77;;;2.50;;
51987;SDS011;38003;52.012;4.346;2022-07-23T05:12:47;4.67;;;2.50;;
51987;SDS011;38003;52.012;4.346;2022-07-23T05:15:15;4.03;;;2.23;;
51987;SDS011;38003;52.012;4.346;2022-07-23T05:17:43;3.30;;;2.20;;
51987;SDS011;38003;52.012;4.346;2022-07-23T05:20:11;3.20;;;2.23;;
51987;SDS011;38003;52.012;4.346;2022-07-23T05:22:39;4.23;;;2.47;;
51987;SDS011;38003;52.012;4.346;2022-07-23T05:25:09;4.23;;;2.10;;
51987;SDS011;38003;52.012;4.346;2022-07-23T05:27:37;3.70;;;2.00;;
51987;SDS011;38003;52.012;4.346;2022-07-23T05:30:05;2.50;;;2.07;;
51987;SDS011;38003;52.012;4.346;2022-07-23T05:32:34;4.03;;;2.00;;
51987;SDS011;38003;52.012;4.346;2022-07-23T05:35:03;4.17;;;2.00;;
51987;SDS011;38003;52.012;4.346;2022-07-23T05:37:31;5.53;;;2.27;;
51987;SDS011;38003;52.012;4.346;2022-07-23T05:40:00;2.27;;;1.70;;
51987;SDS011;38003;52.012;4.346;2022-07-23T05:42:30;4.60;;;1.33;;
51987;SDS011;38003;52.012;4.346;2022-07-23T05:44:58;2.47;;;1.40;;
51987;SDS011;38003;52.012;4.346;2022-07-23T05:47:27;2.33;;;1.40;;
51987;SDS011;38003;52.012;4.346;2022-07-23T05:49:54;3.63;;;1.43;;
51987;SDS011;38003;52.012;4.346;2022-07-23T05:52:28;3.70;;;1.40;;
51987;SDS011;38003;52.012;4.346;2022-07-23T05:54:56;2.42;;;1.63;;
51987;SDS011;38003;52.012;4.346;2022-07-23T05:57:24;3.25;;;1.70;;
51987;SDS011;38003;52.012;4.346;2022-07-23T05:59:53;2.63;;;1.57;;
51987;SDS011;38003;52.012;4.346;2022-07-23T06:02:21;2.22;;;1.65;;
51987;SDS011;38003;52.012;4.346;2022-07-23T06:04:49;3.90;;;1.80;;
51987;SDS011;38003;52.012;4.346;2022-07-23T06:07:17;2.90;;;1.40;;
51987;SDS011;38003;52.012;4.346;2022-07-23T06:09:45;3.03;;;1.70;;
51987;SDS011;38003;52.012;4.346;2022-07-23T06:12:15;2.10;;;1.50;;
51987;SDS011;38003;52.012;4.346;2022-07-23T06:14:43;3.88;;;1.85;;
51987;SDS011;38003;52.012;4.346;2022-07-23T06:17:12;3.47;;;1.70;;
51987;SDS011;38003;52.012;4.346;2022-07-23T06:19:40;3.30;;;1.57;;
51987;SDS011;38003;52.012;4.346;2022-07-23T06:22:08;2.90;;;1.53;;
51987;SDS011;38003;52.012;4.346;2022-07-23T06:24:36;2.67;;;1.60;;
51987;SDS011;38003;52.012;4.346;2022-07-23T06:27:04;2.93;;;1.70;;
51987;SDS011;38003;52.012;4.346;2022-07-23T06:29:32;4.27;;;1.50;;
51987;SDS011;38003;52.012;4.346;2022-07-23T06:32:00;3.38;;;1.58;;
51987;SDS011;38003;52.012;4.346;2022-07-23T06:34:29;3.60;;;1.63;;
51987;SDS011;38003;52.012;4.346;2022-07-23T06:36:57;3.83;;;1.70;;
51987;SDS011;38003;52.012;4.346;2022-07-23T06:39:25;2.60;;;1.60;;
51987;SDS011;38003;52.012;4.346;2022-07-23T06:41:53;2.77;;;1.53;;
51987;SDS011;38003;52.012;4.346;2022-07-23T06:44:26;2.40;;;1.42;;
51987;SDS011;38003;52.012;4.346;2022-07-23T06:46:54;3.80;;;1.50;;
51987;SDS011;38003;52.012;4.346;2022-07-23T06:49:22;3.03;;;1.60;;
51987;SDS011;38003;52.012;4.346;2022-07-23T06:51:51;3.90;;;2.00;;
51987;SDS011;38003;52.012;4.346;2022-07-23T06:54:19;4.00;;;2.00;;
51987;SDS011;38003;52.012;4.346;2022-07-23T06:56:47;4.38;;;1.90;;
51987;SDS011;38003;52.012;4.346;2022-07-23T06:59:15;3.53;;;2.13;;
51987;SDS011;38003;52.012;4.346;2022-07-23T07:01:42;2.63;;;1.85;;
51987;SDS011;38003;52.012;4.346;2022-07-23T07:04:11;4.00;;;1.63;;
51987;SDS011;38003;52.012;4.346;2022-07-23T07:06:38;4.70;;;2.20;;
51987;SDS011;38003;52.012;4.346;2022-07-23T07:09:08;4.55;;;2.10;;
51987;SDS011;38003;52.012;4.346;2022-07-23T07:11:36;8.03;;;2.10;;
51987;SDS011;38003;52.012;4.346;2022-07-23T07:14:04;2.60;;;1.80;;
51987;SDS011;38003;52.012;4.346;2022-07-23T07:16:32;3.42;;;2.17;;
51987;SDS011;38003;52.012;4.346;2022-07-23T07:19:00;5.43;;;2.27;;
51987;SDS011;38003;52.012;4.346;2022-07-23T07:21:29;4.57;;;1.80;;
51987;SDS011;38003;52.012;4.346;2022-07-23T07:23:57;4.10;;;1.93;;
51987;SDS011;38003;52.012;4.346;2022-07-23T07:26:26;2.95;;;1.77;;
51987;SDS011;38003;52.012;4.346;2022-07-23T07:28:54;2.80;;;1.80;;
51987;SDS011;38003;52.012;4.346;2022-07-23T07:31:22;4.33;;;1.90;;
51987;SDS011;38003;52.012;4.346;2022-07-23T07:33:50;4.72;;;1.65;;
51987;SDS011;38003;52.012;4.346;2022-07-23T07:36:18;5.07;;;2.55;;
51987;SDS011;38003;52.012;4.346;2022-07-23T07:38:46;4.00;;;2.33;;
51987;SDS011;38003;52.012;4.346;2022-07-23T07:41:15;4.72;;;2.20;;
51987;SDS011;38003;52.012;4.346;2022-07-23T07:43:44;4.63;;;2.00;;
51987;SDS011;38003;52.012;4.346;2022-07-23T07:46:12;4.70;;;1.90;;
51987;SDS011;38003;52.012;4.346;2022-07-23T07:48:40;1.93;;;1.50;;
51987;SDS011;38003;52.012;4.346;2022-07-23T07:51:08;4.78;;;1.55;;
51987;SDS011;38003;52.012;4.346;2022-07-23T07:53:36;3.50;;;1.73;;
51987;SDS011;38003;52.012;4.346;2022-07-23T07:56:05;3.85;;;1.50;;
51987;SDS011;38003;52.012;4.346;2022-07-23T07:58:33;2.47;;;1.50;;
51987;SDS011;38003;52.012;4.346;2022-07-23T08:01:03;3.85;;;1.90;;
51987;SDS011;38003;52.012;4.346;2022-07-23T08:03:31;4.10;;;1.60;;
51987;SDS011;38003;52.012;4.346;2022-07-23T08:05:59;2.47;;;1.50;;
51987;SDS011;38003;52.012;4.346;2022-07-23T08:08:27;2.88;;;1.70;;
51987;SDS011;38003;52.012;4.346;2022-07-23T08:10:55;2.70;;;1.42;;
51987;SDS011;38003;52.012;4.346;2022-07-23T08:13:23;3.35;;;1.58;;
51987;SDS011;38003;52.012;4.346;2022-07-23T08:15:51;2.67;;;1.40;;
51987;SDS011;38003;52.012;4.346;2022-07-23T08:18:21;2.55;;;1.60;;
51987;SDS011;38003;52.012;4.346;2022-07-23T08:20:49;4.50;;;1.50;;
51987;SDS011;38003;52.012;4.346;2022-07-23T08:23:17;5.15;;;2.40;;
51987;SDS011;38003;52.012;4.346;2022-07-23T08:25:46;4.50;;;1.48;;
51987;SDS011;38003;52.012;4.346;2022-07-23T08:28:14;2.88;;;1.48;;
51987;SDS011;38003;52.012;4.346;2022-07-23T08:30:44;2.50;;;1.42;;
51987;SDS011;38003;52.012;4.346;2022-07-23T08:33:13;4.13;;;1.67;;
51987;SDS011;38003;52.012;4.346;2022-07-23T08:36:01;3.38;;;1.50;;
51987;SDS011;38003;52.012;4.346;2022-07-23T08:38:31;4.40;;;1.55;;
51987;SDS011;38003;52.012;4.346;2022-07-23T08:40:59;3.53;;;2.85;;
51987;SDS011;38003;52.012;4.346;2022-07-23T08:43:28;4.00;;;2.13;;
51987;SDS011;38003;52.012;4.346;2022-07-23T08:45:58;2.95;;;1.90;;
51987;SDS011;38003;52.012;4.346;2022-07-23T08:48:28;3.78;;;1.80;;
51987;SDS011;38003;52.012;4.346;2022-07-23T08:50:59;3.75;;;1.60;;
51987;SDS011;38003;52.012;4.346;2022-07-23T08:53:30;4.35;;;1.77;;
51987;SDS011;38003;52.012;4.346;2022-07-23T08:55:59;6.05;;;1.98;;
51987;SDS011;38003;52.012;4.346;2022-07-23T08:58:28;4.68;;;1.60;;
51987;SDS011;38003;52.012;4.346;2022-07-23T09:00:58;6.97;;;1.73;;
51987;SDS011;38003;52.012;4.346;2022-07-23T09:03:27;2.70;;;1.70;;
51987;SDS011;38003;52.012;4.346;2022-07-23T09:05:57;2.75;;;1.80;;
51987;SDS011;38003;52.012;4.346;2022-07-23T09:08:35;3.22;;;1.70;;
51987;SDS011;38003;52.012;4.346;2022-07-23T09:11:04;4.88;;;1.77;;
51987;SDS011;38003;52.012;4.346;2022-07-23T09:13:35;2.72;;;1.70;;
51987;SDS011;38003;52.012;4.346;2022-07-23T09:16:06;3.17;;;1.70;;
51987;SDS011;38003;52.012;4.346;2022-07-23T09:18:38;2.63;;;1.88;;
51987;SDS011;38003;52.012;4.346;2022-07-23T09:21:08;3.97;;;1.80;;
51987;SDS011;38003;52.012;4.346;2022-07-23T09:23:39;3.13;;;1.90;;
51987;SDS011;38003;52.012;4.346;2022-07-23T09:26:22;3.70;;;2.10;;
51987;SDS011;38003;52.012;4.346;2022-07-23T09:29:03;9.70;;;1.90;;
51987;SDS011;38003;52.012;4.346;2022-07-23T09:31:44;3.42;;;1.88;;
51987;SDS011;38003;52.012;4.346;2022-07-23T09:34:15;4.22;;;2.10;;
51987;SDS011;38003;52.012;4.346;2022-07-23T09:36:45;3.30;;;1.92;;
51987;SDS011;38003;52.012;4.346;2022-07-23T09:39:15;3.97;;;1.80;;
51987;SDS011;38003;52.012;4.346;2022-07-23T09:41:52;2.80;;;1.80;;
51987;SDS011;38003;52.012;4.346;2022-07-23T09:44:21;2.35;;;1.80;;
51987;SDS011;38003;52.012;4.346;2022-07-23T09:46:57;4.35;;;1.90;;
51987;SDS011;38003;52.012;4.346;2022-07-23T09:49:27;3.28;;;1.80;;
51987;SDS011;38003;52.012;4.346;2022-07-23T09:51:58;2.53;;;1.75;;
51987;SDS011;38003;52.012;4.346;2022-07-23T09:54:30;1.95;;;1.75;;
51987;SDS011;38003;52.012;4.346;2022-07-23T09:57:01;3.40;;;2.10;;
51987;SDS011;38003;52.012;4.346;2022-07-23T09:59:33;5.38;;;1.92;;
51987;SDS011;38003;52.012;4.346;2022-07-23T10:02:05;2.60;;;1.80;;
51987;SDS011;38003;52.012;4.346;2022-07-23T10:04:35;3.58;;;1.77;;
51987;SDS011;38003;52.012;4.346;2022-07-23T10:07:04;4.05;;;2.00;;
51987;SDS011;38003;52.012;4.346;2022-07-23T10:09:37;3.80;;;1.83;;
51987;SDS011;38003;52.012;4.346;2022-07-23T10:12:09;4.05;;;2.30;;
51987;SDS011;38003;52.012;4.346;2022-07-23T10:14:52;3.75;;;1.67;;
51987;SDS011;38003;52.012;4.346;2022-07-23T10:17:19;2.55;;;1.52;;
51987;SDS011;38003;52.012;4.346;2022-07-23T10:19:47;3.00;;;1.85;;
51987;SDS011;38003;52.012;4.346;2022-07-23T10:22:18;3.58;;;1.73;;
51987;SDS011;38003;52.012;4.346;2022-07-23T10:24:52;2.40;;;1.45;;
51987;SDS011;38003;52.012;4.346;2022-07-23T10:30:28;2.45;;;1.60;;
51987;SDS011;38003;52.012;4.346;2022-07-23T10:33:09;2.47;;;1.50;;
51987;SDS011;38003;52.012;4.346;2022-07-23T10:35:47;2.58;;;1.67;;
51987;SDS011;38003;52.012;4.346;2022-07-23T10:38:20;3.67;;;1.90;;
51987;SDS011;38003;52.012;4.346;2022-07-23T10:40:57;3.63;;;1.50;;
51987;SDS011;38003;52.012;4.346;2022-07-23T10:43:26;2.35;;;1.80;;
51987;SDS011;38003;52.012;4.346;2022-07-23T10:45:56;1.77;;;1.42;;
51987;SDS011;38003;52.012;4.346;2022-07-23T10:54:50;1.80;;;1.35;;
51987;SDS011;38003;52.012;4.346;2022-07-23T10:57:23;2.25;;;1.60;;
51987;SDS011;38003;52.012;4.346;2022-07-23T11:02:44;3.33;;;1.50;;
51987;SDS011;38003;52.012;4.346;2022-07-23T11:05:14;1.65;;;1.30;;
51987;SDS011;38003;52.012;4.346;2022-07-23T11:10:41;1.77;;;1.48;;
51987;SDS011;38003;52.012;4.346;2022-07-23T11:13:28;1.92;;;1.50;;
51987;SDS011;38003;52.012;4.346;2022-07-23T11:16:04;1.60;;;1.50;;
51987;SDS011;38003;52.012;4.346;2022-07-23T11:21:40;4.95;;;1.65;;
51987;SDS011;38003;52.012;4.346;2022-07-23T11:24:18;1.52;;;1.42;;
51987;SDS011;38003;52.012;4.346;2022-07-23T11:26:49;1.95;;;1.30;;
51987;SDS011;38003;52.012;4.346;2022-07-23T11:32:22;2.15;;;1.23;;
51987;SDS011;38003;52.012;4.346;2022-07-23T11:35:26;1.88;;;1.30;;
51987;SDS011;38003;52.012;4.346;2022-07-23T11:38:04;2.35;;;1.60;;
51987;SDS011;38003;52.012;4.346;2022-07-23T11:40:33;2.33;;;1.40;;
51987;SDS011;38003;52.012;4.346;2022-07-23T11:43:03;2.10;;;1.40;;
51987;SDS011;38003;52.012;4.346;2022-07-23T11:45:34;1.63;;;1.40;;
51987;SDS011;38003;52.012;4.346;2022-07-23T11:48:04;2.40;;;1.17;;
51987;SDS011;38003;52.012;4.346;2022-07-23T11:50:34;2.13;;;1.30;;
51987;SDS011;38003;52.012;4.346;2022-07-23T11:53:03;3.40;;;1.55;;
51987;SDS011;38003;52.012;4.346;2022-07-23T11:55:30;2.75;;;1.42;;
51987;SDS011;38003;52.012;4.346;2022-07-23T11:57:58;3.03;;;1.70;;
51987;SDS011;38003;52.012;4.346;2022-07-23T12:00:27;3.08;;;1.42;;
51987;SDS011;38003;52.012;4.346;2022-07-23T12:02:58;2.78;;;1.55;;
51987;SDS011;38003;52.012;4.346;2022-07-23T12:05:28;2.10;;;1.77;;
51987;SDS011;38003;52.012;4.346;2022-07-23T12:07:58;2.80;;;1.60;;
51987;SDS011;38003;52.012;4.346;2022-07-23T12:10:27;1.55;;;1.38;;
51987;SDS011;38003;52.012;4.346;2022-07-23T12:12:58;1.83;;;1.25;;
51987;SDS011;38003;52.012;4.346;2022-07-23T12:15:27;2.17;;;1.50;;
51987;SDS011;38003;52.012;4.346;2022-07-23T12:17:59;2.50;;;1.67;;
51987;SDS011;38003;52.012;4.346;2022-07-23T12:20:29;2.53;;;2.20;;
51987;SDS011;38003;52.012;4.346;2022-07-23T12:22:59;2.90;;;1.85;;
51987;SDS011;38003;52.012;4.346;2022-07-23T12:25:28;3.55;;;1.90;;
51987;SDS011;38003;52.012;4.346;2022-07-23T12:27:58;3.58;;;1.98;;
51987;SDS011;38003;52.012;4.346;2022-07-23T12:30:28;3.58;;;2.13;;
51987;SDS011;38003;52.012;4.346;2022-07-23T12:33:01;5.40;;;2.20;;
51987;SDS011;38003;52.012;4.346;2022-07-23T12:35:31;3.63;;;2.50;;
51987;SDS011;38003;52.012;4.346;2022-07-23T12:38:01;3.50;;;1.90;;
51987;SDS011;38003;52.012;4.346;2022-07-23T12:40:32;2.70;;;2.40;;
51987;SDS011;38003;52.012;4.346;2022-07-23T12:43:01;2.47;;;2.17;;
51987;SDS011;38003;52.012;4.346;2022-07-23T12:48:20;4.05;;;3.22;;
51987;SDS011;38003;52.012;4.346;2022-07-23T12:50:54;4.53;;;2.80;;
51987;SDS011;38003;52.012;4.346;2022-07-23T12:53:24;6.03;;;1.90;;
51987;SDS011;38003;52.012;4.346;2022-07-23T12:55:57;2.33;;;1.60;;
51987;SDS011;38003;52.012;4.346;2022-07-23T12:58:47;4.53;;;1.63;;
51987;SDS011;38003;52.012;4.346;2022-07-23T13:01:36;2.97;;;1.60;;
51987;SDS011;38003;52.012;4.346;2022-07-23T13:04:06;3.42;;;1.55;;
51987;SDS011;38003;52.012;4.346;2022-07-23T13:06:40;4.25;;;2.00;;
51987;SDS011;38003;52.012;4.346;2022-07-23T13:09:11;5.88;;;1.80;;
51987;SDS011;38003;52.012;4.346;2022-07-23T13:11:41;6.40;;;1.70;;
51987;SDS011;38003;52.012;4.346;2022-07-23T13:14:10;4.65;;;2.03;;
51987;SDS011;38003;52.012;4.346;2022-07-23T13:16:39;4.15;;;2.05;;
51987;SDS011;38003;52.012;4.346;2022-07-23T13:19:09;4.22;;;2.25;;
51987;SDS011;38003;52.012;4.346;2022-07-23T13:21:38;4.32;;;1.92;;
51987;SDS011;38003;52.012;4.346;2022-07-23T13:24:08;4.43;;;2.47;;
51987;SDS011;38003;52.012;4.346;2022-07-23T13:26:38;4.75;;;2.10;;
51987;SDS011;38003;52.012;4.346;2022-07-23T13:29:07;4.63;;;2.40;;
51987;SDS011;38003;52.012;4.346;2022-07-23T13:31:36;8.40;;;2.78;;
51987;SDS011;38003;52.012;4.346;2022-07-23T13:34:06;4.15;;;2.78;;
51987;SDS011;38003;52.012;4.346;2022-07-23T13:36:35;4.93;;;2.20;;
51987;SDS011;38003;52.012;4.346;2022-07-23T13:39:04;2.92;;;2.00;;
51987;SDS011;38003;52.012;4.346;2022-07-23T13:41:34;3.88;;;2.40;;
51987;SDS011;38003;52.012;4.346;2022-07-23T13:44:03;4.05;;;2.47;;
51987;SDS011;38003;52.012;4.346;2022-07-23T13:46:32;3.50;;;2.03;;
51987;SDS011;38003;52.012;4.346;2022-07-23T13:49:00;4.75;;;2.78;;
51987;SDS011;38003;52.012;4.346;2022-07-23T13:51:32;4.90;;;2.92;;
51987;SDS011;38003;52.012;4.346;2022-07-23T13:54:01;2.78;;;2.22;;
51987;SDS011;38003;52.012;4.346;2022-07-23T13:56:34;6.05;;;2.28;;
51987;SDS011;38003;52.012;4.346;2022-07-23T13:59:02;4.57;;;2.50;;
51987;SDS011;38003;52.012;4.346;2022-07-23T14:01:32;4.13;;;2.30;;
51987;SDS011;38003;52.012;4.346;2022-07-23T14:04:20;5.68;;;2.50;;
51987;SDS011;38003;52.012;4.346;2022-07-23T14:06:49;5.18;;;2.17;;
51987;SDS011;38003;52.012;4.346;2022-07-23T14:09:21;3.70;;;2.33;;
51987;SDS011;38003;52.012;4.346;2022-07-23T14:11:51;5.40;;;2.30;;
51987;SDS011;38003;52.012;4.346;2022-07-23T14:14:19;3.22;;;2.25;;
51987;SDS011;38003;52.012;4.346;2022-07-23T14:16:47;6.05;;;2.30;;
51987;SDS011;38003;52.012;4.346;2022-07-23T14:19:15;2.47;;;2.00;;
51987;SDS011;38003;52.012;4.346;2022-07-23T14:21:44;3.38;;;1.95;;
51987;SDS011;38003;52.012;4.346;2022-07-23T14:24:15;4.75;;;2.88;;
51987;SDS011;38003;52.012;4.346;2022-07-23T14:26:45;4.75;;;2.70;;
51987;SDS011;38003;52.012;4.346;2022-07-23T14:29:13;2.78;;;2.58;;
51987;SDS011;38003;52.012;4.346;2022-07-23T14:31:42;3.38;;;2.30;;
51987;SDS011;38003;52.012;4.346;2022-07-23T14:34:13;3.42;;;2.03;;
51987;SDS011;38003;52.012;4.346;2022-07-23T14:36:40;5.68;;;2.50;;
51987;SDS011;38003;52.012;4.346;2022-07-23T14:39:08;3.97;;;2.40;;
51987;SDS011;38003;52.012;4.346;2022-07-23T14:41:38;3.53;;;2.40;;
51987;SDS011;38003;52.012;4.346;2022-07-23T14:44:07;4.75;;;2.35;;
51987;SDS011;38003;52.012;4.346;2022-07-23T14:46:35;4.15;;;2.60;;
51987;SDS011;38003;52.012;4.346;2022-07-23T14:49:04;2.40;;;1.95;;
51987;SDS011;38003;52.012;4.346;2022-07-23T14:51:33;2.50;;;2.00;;
51987;SDS011;38003;52.012;4.346;2022-07-23T14:54:02;4.95;;;2.10;;
51987;SDS011;38003;52.012;4.346;2022-07-23T14:56:30;2.50;;;1.70;;
51987;SDS011;38003;52.012;4.346;2022-07-23T14:58:59;5.57;;;2.70;;
51987;SDS011;38003;52.012;4.346;2022-07-23T15:01:31;5.60;;;2.88;;
51987;SDS011;38003;52.012;4.346;2022-07-23T15:04:00;4.63;;;2.30;;
51987;SDS011;38003;52.012;4.346;2022-07-23T15:06:48;3.22;;;2.53;;
51987;SDS011;38003;52.012;4.346;2022-07-23T15:09:16;5.13;;;2.33;;
51987;SDS011;38003;52.012;4.346;2022-07-23T15:11:45;2.97;;;2.00;;
51987;SDS011;38003;52.012;4.346;2022-07-23T15:14:13;4.75;;;2.38;;
51987;SDS011;38003;52.012;4.346;2022-07-23T15:16:54;4.13;;;2.05;;
51987;SDS011;38003;52.012;4.346;2022-07-23T15:19:22;4.25;;;2.30;;
51987;SDS011;38003;52.012;4.346;2022-07-23T15:21:50;5.15;;;2.22;;
51987;SDS011;38003;52.012;4.346;2022-07-23T15:24:18;4.13;;;2.20;;
51987;SDS011;38003;52.012;4.346;2022-07-23T15:26:46;3.50;;;1.90;;